Terminal Aerodrome Forecast
Issued by NWS Tampa Bay Area, FL

Home | Current Version | Previous Version | Text Only | Print | Product List | Glossary On
Versions: 1 2 3 4 5 6 7 8 9 10 11 12 13 14 15 16 17 18 19 20
000
FTUS42 KTBW 050500
TAFSRQ
TAF
KSRQ 050539Z 0506/0606 14005KT P6SM SCT050
     FM050900 VRB03KT 6SM BR FEW003 SCT010
     FM051500 18010KT P6SM SCT020
     FM051800 20012KT P6SM SCT040 SCT200
     FM060000 22006KT P6SM FEW030 SCT250=

USA.gov is the U.S. government's official web portal to all federal, state and local government web resources and services.